Latest Weather Observations for Armidale Airport

IDN60801

Issued at 5:02 am EDT Friday 24 March 2017 (issued every 30 minutes, with the page automatically refreshed every 10 minutes)

About weather observations | Map of weather stations | Latest weather observations for NSW | Other Formats
Station Details ID: 056238 Name: ARMIDALE AIRPORT AWS Lat: -30.53 Lon: 151.62 Height: 1079.0 m
Data from the previous 72 hours. | See also: Recent months at Armidale Airport
Date/Time
EDT
Temp
°C
App
Temp
°C
Dew
Point
°C
Rel
Hum
%
Delta-T
°C
Wind Press
QNH
hPa
Press
MSL
hPa
Rain since
9am
mm
Dir  Spd
km/h
Gust
km/h
Spd
kts
Gust
kts
24/04:30am 15.3 17.0 15.3 100 0.0 CALM 0 0 0 0 1018.8 1013.9 0.2
24/04:00am 16.1 17.8 16.1 100 0.0 NE 2 6 1 3 1019.5 1014.6 0.2
24/03:30am 15.9 15.8 15.9 100 0.0 ENE 11 13 6 7 1019.4 1014.5 0.2
24/03:00am 15.9 15.0 15.9 100 0.0 NE 15 17 8 9 1019.4 1014.5 0.2
24/02:30am 16.1 15.3 16.1 100 0.0 ENE 15 19 8 10 1019.6 1014.7 0.2
24/02:00am 16.3 15.6 16.3 100 0.0 ENE 15 17 8 9 1020.4 1015.5 0.2
24/01:30am 16.8 16.3 16.8 100 0.0 ENE 15 19 8 10 1020.7 1015.9 0.2
24/01:00am 16.9 16.8 16.9 100 0.0 E 13 15 7 8 1020.9 1016.1 0.2
24/12:30am 17.1 16.7 17.1 100 0.0 E 15 20 8 11 1020.8 1016.0 0.2
24/12:00am 17.5 16.5 17.5 100 0.0 ENE 19 22 10 12 1021.0 1016.2 0.2
 
Date/Time
EDT
Temp
°C
App
Temp
°C
Dew
Point
°C
Rel
Hum
%
Delta-T
°C
Wind Press
QNH
hPa
Press
MSL
hPa
Rain since
9am
mm
Dir  Spd
km/h
Gust
km/h
Spd
kts
Gust
kts
23/11:30pm 17.5 16.5 17.5 100 0.0 ENE 19 22 10 12 1021.0 1016.2 0.2
23/11:00pm 17.7 17.2 17.7 100 0.0 E 17 20 9 11 1021.5 1016.7 0.2
23/10:30pm 17.8 17.3 17.8 100 0.0 ESE 17 22 9 12 1021.4 1016.5 0.2
23/10:00pm 18.0 18.0 18.0 100 0.0 ESE 15 19 8 10 1021.6 1016.8 0.2
23/09:30pm 18.4 19.3 18.4 100 0.0 ESE 11 15 6 8 1021.7 1016.9 0.2
23/09:00pm 18.6 17.9 18.6 100 0.0 ENE 20 28 11 15 1021.0 1016.2 0.2
23/08:30pm 18.8 18.2 18.8 100 0.0 E 20 28 11 15 1020.7 1015.9 0.2
23/08:00pm 19.3 18.5 19.3 100 0.0 E 22 28 12 15 1020.3 1015.4 0.2
23/07:30pm 19.9 20.3 19.9 100 0.0 E 17 26 9 14 1019.8 1015.0 0.2
23/07:00pm 20.7 21.9 20.7 100 0.0 ESE 15 19 8 10 1019.6 1014.7 0.2
23/06:30pm 21.2 22.7 21.2 100 0.0 ESE 15 20 8 11 1019.4 1014.5 0.2
23/06:00pm 21.8 23.6 21.8 100 0.0 ESE 15 19 8 10 1019.3 1014.4 0.2
23/05:30pm 22.5 24.6 22.5 100 0.0 E 15 20 8 11 1019.1 1014.3 0.2
23/05:00pm 23.2 25.4 23.2 100 0.0 ESE 17 22 9 12 1019.0 1014.2 0.2
23/04:30pm 22.7 25.7 22.7 100 0.0 SE 11 17 6 9 1019.0 1014.2 0.2
23/04:00pm 22.6 23.9 22.6 100 0.0 ESE 20 28 11 15 1019.1 1014.3 0.2
23/03:30pm 23.3 25.5 23.3 100 0.0 SE 17 20 9 11 1019.3 1014.4 0.2
23/03:00pm 23.2 25.7 23.2 100 0.0 S 15 19 8 10 1019.5 1014.6 0.2
23/02:30pm 23.5 27.6 23.3 99 0.1 W 7 11 4 6 1019.6 1014.7 0.2
23/02:00pm 23.6 27.5 23.6 100 0.0 SSW 9 19 5 10 1020.1 1015.3 0.2
23/01:30pm 22.8 26.3 22.8 100 0.0 SSE 9 15 5 8 1020.5 1015.6 0.2
23/01:00pm 22.8 25.5 22.8 100 0.0 SSW 13 19 7 10 1021.0 1016.2 0.2
23/12:30pm 23.2 26.9 23.2 100 0.0 SW 9 15 5 8 1021.4 1016.5 0.2
23/12:00pm 22.2 24.9 22.2 100 0.0 SW 11 17 6 9 1021.5 1016.7 0.2
23/11:30am 22.3 24.7 22.3 100 0.0 SSW 13 17 7 9 1021.8 1017.0 0.0
23/11:00am 21.1 22.9 21.1 100 0.0 SSW 13 17 7 9 1022.0 1017.2 0.0
23/10:30am 20.4 21.5 20.4 100 0.0 SW 15 20 8 11 1022.0 1017.2 0.0
23/10:00am 19.9 21.5 19.9 100 0.0 WSW 11 15 6 8 1021.8 1017.0 0.0
23/09:30am 19.4 21.7 19.4 100 0.0 NW 6 11 3 6 1021.3 1016.4 0.0
23/09:00am 18.5 21.1 18.5 100 0.0 ENE 2 7 1 4 1021.1 1016.3 6.2
23/08:30am 17.4 18.6 17.4 100 0.0 ENE 7 9 4 5 1020.8 1016.0 6.2
23/08:00am 15.6 16.3 15.6 100 0.0 NE 6 6 3 3 1020.5 1015.6 6.2
23/07:30am 14.8 15.2 14.8 100 0.0 NE 6 6 3 3 1020.3 1015.4 6.2
23/07:00am 14.7 15.1 14.7 100 0.0 NE 6 7 3 4 1020.1 1015.3 6.2
23/06:30am 14.4 14.5 14.4 100 0.0 NNE 7 9 4 5 1019.7 1014.8 6.2
23/06:00am 15.2 15.6 15.2 100 0.0 NW 7 9 4 5 1019.6 1014.7 6.2
23/05:30am 15.2 15.6 15.2 100 0.0 W 7 9 4 5 1019.6 1014.7 6.2
23/05:00am 15.3 15.7 15.3 100 0.0 NNW 7 11 4 6 1019.3 1014.4 6.2
23/04:30am 15.3 17.0 15.3 100 0.0 CALM 0 0 0 0 1019.4 1014.5 6.2
23/04:00am 15.2 16.9 15.2 100 0.0 CALM 0 4 0 2 1019.3 1014.4 6.2
23/03:30am 15.2 15.2 15.2 100 0.0 NW 9 11 5 6 1019.4 1014.5 6.2
23/03:00am 15.6 16.1 15.6 100 0.0 WSW 7 9 4 5 1019.5 1014.6 6.2
23/02:30am 15.3 17.0 15.3 100 0.0 CALM 0 6 0 3 1019.7 1014.8 6.2
23/02:00am 15.3 15.3 15.3 100 0.0 N 9 11 5 6 1019.9 1015.1 6.2
23/01:30am 15.7 15.9 15.7 100 0.0 SW 9 13 5 7 1020.5 1015.6 6.0
23/01:00am 15.5 15.6 15.5 100 0.0 WSW 9 11 5 6 1021.0 1016.2 5.2
23/12:30am 15.8 14.5 15.8 100 0.0 SSW 17 22 9 12 1021.5 1016.7 3.8
23/12:00am 16.1 14.0 16.1 100 0.0 SW 22 30 12 16 1021.8 1017.0 1.2
 
Date/Time
EDT
Temp
°C
App
Temp
°C
Dew
Point
°C
Rel
Hum
%
Delta-T
°C
Wind Press
QNH
hPa
Press
MSL
hPa
Rain since
9am
mm
Dir  Spd
km/h
Gust
km/h
Spd
kts
Gust
kts
22/11:49pm 16.3 13.5 16.3 100 0.0 WSW 26 33 14 18 1021.6 1016.8 1.0
22/11:30pm 17.3 19.4 17.3 100 0.0 WSW 2 15 1 8 1021.0 1016.2 0.8
22/11:00pm 17.2 18.3 17.2 100 0.0 SSW 7 11 4 6 1020.8 1016.0 0.8
22/10:30pm 17.5 18.4 17.5 100 0.0 WNW 9 11 5 6 1020.9 1016.1 0.4
22/10:00pm 19.3 22.7 19.3 100 0.0 CALM 0 0 0 0 1020.7 1015.9 0.4
22/09:30pm 19.3 22.7 19.3 100 0.0 CALM 0 0 0 0 1020.7 1015.9 0.4
22/09:00pm 19.4 22.8 19.4 100 0.0 CALM 0 0 0 0 1020.4 1015.5 0.4
22/08:30pm 19.3 22.7 19.3 100 0.0 CALM 0 0 0 0 1019.9 1015.1 0.4
22/08:00pm 19.4 22.8 19.4 100 0.0 CALM 0 0 0 0 1019.4 1014.5 0.4
22/07:30pm 19.6 23.1 19.6 100 0.0 CALM 0 0 0 0 1018.9 1014.1 0.4
22/07:00pm 20.2 23.3 20.2 100 0.0 W 4 6 2 3 1018.7 1013.8 0.4
22/06:30pm 20.5 22.4 20.5 100 0.0 W 11 13 6 7 1018.6 1013.7 0.4
22/06:00pm 21.1 22.5 21.1 100 0.0 WNW 15 20 8 11 1018.4 1013.5 0.4
22/05:30pm 21.5 23.5 21.5 100 0.0 W 13 17 7 9 1018.3 1013.4 0.4
22/05:00pm 21.8 23.6 21.8 100 0.0 W 15 19 8 10 1018.0 1013.1 0.4
22/04:30pm 22.0 23.9 22.0 100 0.0 WNW 15 20 8 11 1018.4 1013.5 0.4
22/04:00pm 21.8 23.6 21.8 100 0.0 WSW 15 20 8 11 1018.4 1013.5 0.4
22/03:30pm 22.3 23.6 22.3 100 0.0 NW 19 24 10 13 1018.7 1013.8 0.4
22/03:00pm 22.0 23.1 22.0 100 0.0 W 19 24 10 13 1018.7 1013.8 0.4
22/02:30pm 21.6 22.9 21.6 100 0.0 W 17 24 9 13 1019.1 1014.3 0.4
22/02:00pm 21.5 23.1 21.5 100 0.0 WNW 15 20 8 11 1019.4 1014.5 0.4
22/01:30pm 20.9 21.3 20.9 100 0.0 NW 20 24 11 13 1019.8 1015.0 0.4
22/01:00pm 20.8 21.3 20.8 100 0.0 NW 19 24 10 13 1020.1 1015.3 0.4
22/12:43pm 20.0 20.5 20.0 100 0.0 NW 17 24 9 13 1020.3 1015.4 0.4
22/12:30pm 19.7 20.0 19.7 100 0.0 WNW 17 20 9 11 1020.5 1015.6 0.4
22/12:24pm 19.6 19.9 19.6 100 0.0 WNW 17 20 9 11 1020.6 1015.8 0.4
22/12:23pm 19.7 20.0 19.7 100 0.0 WNW 17 20 9 11 1020.6 1015.8 0.4
22/12:08pm 19.6 19.3 19.6 100 0.0 WNW 20 30 11 16 1020.8 1016.0 0.4
22/12:00pm 19.7 20.0 19.7 100 0.0 NW 17 26 9 14 1020.9 1016.1 0.4
22/11:30am 18.9 18.3 18.9 100 0.0 NW 20 26 11 14 1021.1 1016.3 0.4
22/11:00am 18.2 17.9 18.2 100 0.0 NW 17 22 9 12 1021.5 1016.7 0.4
22/10:30am 17.6 17.8 17.6 100 0.0 WNW 13 17 7 9 1021.5 1016.7 0.4
22/10:00am 17.4 17.5 17.4 100 0.0 W 13 15 7 8 1021.5 1016.7 0.4
22/09:30am 17.4 17.5 17.4 100 0.0 WNW 13 15 7 8 1021.3 1016.4 0.4
22/09:00am 17.4 17.5 17.4 100 0.0 WNW 13 15 7 8 1020.8 1016.0 60.0
22/08:30am 17.1 17.1 17.1 100 0.0 W 13 15 7 8 1020.6 1015.8 60.0
22/08:00am 16.9 17.5 16.9 100 0.0 WNW 9 11 5 6 1020.3 1015.4 60.0
22/07:30am 16.5 17.4 16.5 100 0.0 W 7 7 4 4 1019.8 1015.0 60.0
22/07:00am 16.9 17.5 16.9 100 0.0 NNW 9 11 5 6 1019.4 1014.5 60.0
22/06:30am 16.7 17.3 16.7 100 0.0 NNW 9 13 5 7 1019.1 1014.3 60.0
22/06:00am 16.4 17.2 16.4 100 0.0 NNW 7 11 4 6 1018.9 1014.1 60.0
22/05:30am 16.4 17.2 16.4 100 0.0 WNW 7 11 4 6 1019.0 1014.2 60.0
22/05:00am 16.3 16.7 16.3 100 0.0 NW 9 11 5 6 1018.9 1014.1 60.0
22/04:30am 16.9 17.5 16.9 100 0.0 NNW 9 13 5 7 1018.9 1014.1 60.0
22/04:00am 16.9 16.8 16.9 100 0.0 NNW 13 17 7 9 1019.0 1014.2 60.0
22/03:30am 16.6 16.4 16.6 100 0.0 NW 13 15 7 8 1019.3 1014.4 60.0
22/03:00am 16.8 16.6 16.8 100 0.0 WNW 13 15 7 8 1019.4 1014.5 60.0
22/02:30am 16.8 17.8 16.8 100 0.0 WNW 7 9 4 5 1019.7 1014.8 60.0
22/02:28am 16.8 17.8 16.8 100 0.0 WNW 7 11 4 6 1019.7 1014.8 60.0
22/02:00am 17.0 18.1 17.0 100 0.0 WNW 7 9 4 5 1019.8 1015.0 60.0
22/01:43am 17.0 18.3 17.0 100 0.0 WNW 6 9 3 5 1020.0 1015.2 60.0
22/01:30am 17.0 19.4 17.0 100 0.0 CALM 0 0 0 0 1020.0 1015.2 60.0
22/01:00am 17.3 19.8 17.3 100 0.0 CALM 0 0 0 0 1020.4 1015.5 60.0
22/12:30am 17.3 19.8 17.3 100 0.0 CALM 0 0 0 0 1020.7 1015.9 60.0
22/12:00am 17.1 19.5 17.1 100 0.0 CALM 0 0 0 0 1020.8 1016.0 60.0
 
Date/Time
EDT
Temp
°C
App
Temp
°C
Dew
Point
°C
Rel
Hum
%
Delta-T
°C
Wind Press
QNH
hPa
Press
MSL
hPa
Rain since
9am
mm
Dir  Spd
km/h
Gust
km/h
Spd
kts
Gust
kts
21/11:30pm 17.3 19.8 17.3 100 0.0 CALM 0 4 0 2 1020.9 1016.1 60.0
21/11:00pm 17.3 18.7 17.3 100 0.0 S 6 7 3 4 1020.9 1016.1 60.0
21/10:30pm 17.4 18.8 17.4 100 0.0 WSW 6 7 3 4 1021.0 1016.2 60.0
21/10:00pm 17.4 18.6 17.4 100 0.0 WNW 7 9 4 5 1021.0 1016.2 60.0
21/09:30pm 17.6 19.1 17.6 100 0.0 N 6 7 3 4 1020.9 1016.1 60.0
21/09:18pm 17.6 18.9 17.6 100 0.0 NNE 7 7 4 4 1020.7 1015.9 60.0
21/09:00pm 17.8 19.2 17.8 100 0.0 NNE 7 9 4 5 1020.6 1015.8 60.0
21/08:57pm 17.8 19.2 17.8 100 0.0 NE 7 9 4 5 1020.6 1015.8 60.0
21/08:30pm 17.8 18.8 17.8 100 0.0 NE 9 11 5 6 1020.1 1015.3 60.0
21/08:00pm 17.8 19.2 17.8 100 0.0 NNW 7 9 4 5 1020.1 1015.3 60.0
21/07:30pm 17.9 19.3 17.9 100 0.0 NW 7 9 4 5 1020.1 1015.3 59.8
21/07:00pm 18.2 19.4 18.2 100 0.0 W 9 13 5 7 1020.3 1015.4 59.2
21/06:41pm 18.4 21.4 18.4 100 0.0 CALM 0 9 0 5 1020.3 1015.4 58.6
21/06:30pm 18.3 21.2 18.3 100 0.0 CALM 0 0 0 0 1020.0 1015.2 57.8
21/06:10pm 18.3 20.1 18.3 100 0.0 NE 6 7 3 4 1020.0 1015.2 56.4
21/06:00pm 18.3 20.1 18.3 100 0.0 NNE 6 7 3 4 1019.8 1015.0 55.8
21/05:36pm 18.3 19.2 18.3 100 0.0 ENE 11 15 6 8 1019.6 1014.7 55.4
21/05:30pm 18.3 18.8 18.3 100 0.0 ENE 13 15 7 8 1019.5 1014.6 55.0
21/05:00pm 18.2 18.6 18.2 100 0.0 ENE 13 15 7 8 1019.6 1014.7 52.0
21/04:54pm 18.3 19.2 18.3 100 0.0 ENE 11 13 6 7 1019.8 1015.0 50.8
21/04:35pm 18.2 18.2 18.2 100 0.0 E 15 20 8 11 1019.6 1014.7 49.8
21/04:30pm 18.3 18.4 18.3 100 0.0 E 15 19 8 10 1019.7 1014.8 49.2
21/04:00pm 18.4 18.2 18.4 100 0.0 E 17 22 9 12 1019.6 1014.7 46.8
21/03:59pm 18.5 18.3 18.5 100 0.0 ENE 17 22 9 12 1019.6 1014.7 46.8
21/03:30pm 18.8 19.5 18.8 100 0.0 ENE 13 17 7 9 1019.7 1014.8 44.6
21/03:12pm 18.8 18.7 18.8 100 0.0 E 17 20 9 11 1019.7 1014.8 44.6
21/03:00pm 19.0 19.0 19.0 100 0.0 E 17 20 9 11 1019.7 1014.8 44.6
21/02:30pm 18.8 19.9 18.8 100 0.0 ESE 11 17 6 9 1020.3 1015.4 33.8
21/02:13pm 19.3 19.5 19.3 100 0.0 ENE 17 22 9 12 1020.0 1015.2 21.6
21/02:00pm 20.8 22.8 20.8 100 0.0 SE 11 15 6 8 1019.7 1014.8 20.8
21/01:39pm 20.0 21.6 20.0 100 0.0 SSE 11 15 6 8 1020.1 1015.3 20.8
21/01:30pm 19.6 21.8 19.6 100 0.0 SSE 7 11 4 6 1020.3 1015.4 20.8
21/01:04pm 19.2 21.4 19.2 100 0.0 SW 6 9 3 5 1020.8 1016.0 16.6
21/01:00pm 19.2 21.2 19.2 100 0.0 S 7 13 4 7 1020.7 1015.9 16.6
21/12:49pm 18.9 18.9 18.9 100 0.0 NE 17 32 9 17 1020.8 1016.0 16.0
21/12:40pm 19.3 19.5 19.3 100 0.0 W 17 24 9 13 1021.1 1016.3 1.4
21/12:30pm 21.1 23.6 21.1 100 0.0 SE 9 11 5 6 1020.8 1016.0 0.0
21/12:00pm 22.5 23.7 22.5 100 0.0 ENE 20 26 11 14 1020.9 1016.1 0.0
21/11:30am 22.0 23.5 22.0 100 0.0 ENE 17 20 9 11 1021.4 1016.5 0.0
21/11:00am 21.5 23.1 21.5 100 0.0 ENE 15 20 8 11 1021.6 1016.8 0.0
21/10:30am 20.8 22.1 20.8 100 0.0 NE 15 20 8 11 1021.8 1017.0 0.0
21/10:00am 20.3 20.9 20.3 100 0.0 ENE 17 22 9 12 1021.7 1016.9 0.0
21/09:30am 19.2 18.9 19.2 100 0.0 E 19 24 10 13 1021.6 1016.8 0.0
21/09:00am 18.4 18.2 18.4 100 0.0 ENE 17 20 9 11 1021.5 1016.7 0.6
21/08:59am 18.4 18.2 18.4 100 0.0 ENE 17 20 9 11 1021.5 1016.7 0.6
21/08:30am 17.8 17.7 17.8 100 0.0 E 15 19 8 10 1021.4 1016.5 0.6
21/08:00am 17.5 17.3 17.5 100 0.0 ESE 15 19 8 10 1020.9 1016.1 0.6
21/07:47am 17.4 17.1 17.4 100 0.0 ESE 15 17 8 9 1020.9 1016.1 0.6
21/07:30am 17.2 16.4 17.2 100 0.0 E 17 19 9 10 1020.6 1015.8 0.6
21/07:18am 17.1 16.3 17.1 100 0.0 E 17 20 9 11 1020.6 1015.8 0.6
21/07:00am 17.2 16.8 17.2 100 0.0 E 15 19 8 10 1020.5 1015.6 0.6
21/06:30am 17.1 16.3 17.1 100 0.0 E 17 20 9 11 1019.9 1015.1 0.6
21/06:12am 17.0 16.5 17.0 100 0.0 ENE 15 19 8 10 1019.9 1015.1 0.6
21/06:00am 17.0 16.2 17.0 100 0.0 E 17 20 9 11 1019.8 1015.0 0.6
21/05:44am 17.1 16.7 17.1 100 0.0 E 15 19 8 10 1019.9 1015.1 0.6
21/05:30am 17.3 17.3 17.3 100 0.0 ESE 13 15 7 8 1019.9 1015.1 0.6

Other Formats:

Comma delimited format used in spreadsheet applications
http://www.bom.gov.au/fwo/IDN60801/IDN60801.95773.axf

JavaScript Object Notation format (JSON) in row-major order
http://www.bom.gov.au/fwo/IDN60801/IDN60801.95773.json